Time;durP1;ratioP1;P1;durP2;ratioP2;P2;SDS_P1;SDS_P2;PMS_P1;PMS_P2;Temp;Humidity;BMP_temperature;BMP_pressure;BME280_temperature;BME280_humidity;BME280_pressure;Samples;Min_cycle;Max_cycle;Signal;HPM_P1;HPM_P2
2023/09/18 00:00:21;;;;;;;;;;;17.40;99.90;;;;;;5133987;27;19911;-42
2023/09/18 00:02:47;;;;;;;;;;;17.40;99.90;;;;;;5133574;27;19915;-41
2023/09/18 00:05:14;;;;;;;;;;;17.50;99.90;;;;;;5133795;27;20003;-43
2023/09/18 00:07:39;;;;;;;;;;;17.50;99.90;;;;;;5133920;27;19956;-43
2023/09/18 00:10:05;;;;;;;;;;;17.50;99.90;;;;;;5133992;27;19908;-44
2023/09/18 00:12:30;;;;;;;;;;;17.40;99.90;;;;;;5133367;27;20404;-43
2023/09/18 00:14:56;;;;;;;;;;;17.40;99.90;;;;;;5133888;28;19914;-47
2023/09/18 00:17:23;;;;;;;;;;;17.40;99.90;;;;;;5133591;28;20343;-43
2023/09/18 00:19:49;;;;;;;;;;;17.40;99.90;;;;;;5133511;28;19912;-42
2023/09/18 00:22:14;;;;;;;;;;;17.40;99.90;;;;;;5133652;28;19914;-43
2023/09/18 00:24:40;;;;;;;;;;;17.30;99.90;;;;;;5133646;28;19914;-47
2023/09/18 00:27:05;;;;;;;;;;;17.20;99.90;;;;;;5133650;28;20372;-42
2023/09/18 00:29:31;;;;;;;;;;;17.10;99.90;;;;;;5135098;27;19911;-43
2023/09/18 00:31:56;;;;;;;;;;;17.10;99.90;;;;;;5137426;27;19919;-44
2023/09/18 00:34:22;;;;;;;;;;;17.00;99.90;;;;;;5137738;27;19919;-43
2023/09/18 00:36:47;;;;;;;;;;;17.00;99.90;;;;;;5137829;27;19915;-43
2023/09/18 00:39:14;;;;;;;;;;;16.90;99.90;;;;;;5137391;27;19920;-43
2023/09/18 00:41:40;;;;;;;;;;;16.90;99.90;;;;;;5138033;27;19934;-42
2023/09/18 00:44:06;;;;;;;;;;;17.00;99.90;;;;;;5137573;27;20396;-43
2023/09/18 00:46:32;;;;;;;;;;;17.00;99.90;;;;;;5137575;27;20002;-43
2023/09/18 00:48:57;;;;;;;;;;;17.00;99.90;;;;;;5137235;27;19960;-42
2023/09/18 00:51:23;;;;;;;;;;;17.00;99.90;;;;;;5153355;27;20315;-42
2023/09/18 00:53:49;;;;;;;;;;;17.00;99.90;;;;;;5158210;27;19947;-41
2023/09/18 00:56:15;;;;;;;;;;;17.00;99.90;;;;;;5158097;27;19996;-43
2023/09/18 00:58:41;;;;;;;;;;;17.10;99.90;;;;;;5158052;27;19907;-43
2023/09/18 01:01:08;;;;;;;;;;;17.10;99.90;;;;;;5157639;27;20353;-45
2023/09/18 01:03:34;;;;;;;;;;;17.10;99.90;;;;;;5158023;27;19907;-43
2023/09/18 01:05:59;;;;;;;;;;;17.10;99.90;;;;;;5158335;27;19911;-44
2023/09/18 01:08:25;;;;;;;;;;;17.10;99.90;;;;;;5157820;27;19911;-43
2023/09/18 01:11:00;;;;;;;;;;;17.20;99.90;;;;;;5157453;27;19911;-43
2023/09/18 01:13:46;;;;;;;;;;;17.20;99.90;;;;;;5157786;27;19999;-43
2023/09/18 01:16:17;;;;;;;;;;;17.20;99.90;;;;;;5146815;27;19997;-43
2023/09/18 01:18:50;;;;;;;;;;;17.20;99.90;;;;;;5137209;27;19908;-42
2023/09/18 01:21:16;;;;;;;;;;;17.20;99.90;;;;;;5136606;27;19912;-43
2023/09/18 01:23:42;;;;;;;;;;;17.20;99.90;;;;;;5136946;27;19911;-44
2023/09/18 01:26:08;;;;;;;;;;;17.20;99.90;;;;;;5145814;27;19929;-43
2023/09/18 01:28:33;;;;;;;;;;;17.30;99.90;;;;;;5136680;27;19961;-43
2023/09/18 01:30:58;;;;;;;;;;;17.30;99.90;;;;;;5136664;27;19970;-45
2023/09/18 01:33:25;;;;;;;;;;;17.40;99.90;;;;;;5135320;27;20392;-42
2023/09/18 01:35:51;;;;;;;;;;;17.40;99.90;;;;;;5134881;28;19912;-47
2023/09/18 01:38:17;;;;;;;;;;;17.40;99.90;;;;;;5134905;28;19981;-42
2023/09/18 01:40:43;;;;;;;;;;;17.40;99.90;;;;;;5134866;27;19994;-44
2023/09/18 01:43:09;;;;;;;;;;;17.40;99.90;;;;;;5135352;28;20346;-43
2023/09/18 01:45:34;;;;;;;;;;;17.50;99.90;;;;;;5135218;28;19908;-46
2023/09/18 01:48:00;;;;;;;;;;;17.50;99.90;;;;;;5147321;27;19911;-42
2023/09/18 01:50:25;;;;;;;;;;;17.50;99.90;;;;;;5134834;27;19934;-42
2023/09/18 01:52:50;;;;;;;;;;;17.50;99.90;;;;;;5135114;28;19919;-42
2023/09/18 01:55:16;;;;;;;;;;;17.50;99.90;;;;;;5134983;28;19908;-42
2023/09/18 01:57:42;;;;;;;;;;;17.50;99.90;;;;;;5135014;28;19911;-44
2023/09/18 02:00:09;;;;;;;;;;;17.50;99.90;;;;;;5135151;28;19911;-41
2023/09/18 02:02:35;;;;;;;;;;;17.60;99.90;;;;;;5135025;28;19914;-45
2023/09/18 02:05:00;;;;;;;;;;;17.50;99.90;;;;;;5146966;27;19950;-42
2023/09/18 02:07:26;;;;;;;;;;;17.50;99.90;;;;;;5155675;27;19999;-47
2023/09/18 02:09:51;;;;;;;;;;;17.60;99.90;;;;;;5155634;27;19911;-43
2023/09/18 02:12:17;;;;;;;;;;;17.60;99.90;;;;;;5155401;27;19915;-44
2023/09/18 02:14:44;;;;;;;;;;;17.60;99.90;;;;;;5155107;27;19917;-43
2023/09/18 02:17:09;;;;;;;;;;;17.60;99.90;;;;;;5155483;27;20002;-42
2023/09/18 02:19:35;;;;;;;;;;;17.70;99.90;;;;;;5155551;27;19939;-44
2023/09/18 02:22:00;;;;;;;;;;;17.60;99.90;;;;;;5155122;27;20373;-45
2023/09/18 02:24:26;;;;;;;;;;;17.70;99.90;;;;;;5155398;27;19997;-43
2023/09/18 02:26:51;;;;;;;;;;;17.60;99.90;;;;;;5155426;27;20545;-43
2023/09/18 02:29:17;;;;;;;;;;;17.70;99.90;;;;;;5154808;27;19930;-43
2023/09/18 02:31:42;;;;;;;;;;;17.70;99.90;;;;;;5092043;27;1774030;-41
2023/09/18 02:34:08;;;;;;;;;;;17.70;99.90;;;;;;5156233;27;20477;-43
2023/09/18 02:36:34;;;;;;;;;;;17.80;99.90;;;;;;5156090;27;20311;-42
2023/09/18 02:39:00;;;;;;;;;;;17.80;99.90;;;;;;5155762;27;19911;-44
2023/09/18 02:41:25;;;;;;;;;;;17.80;99.90;;;;;;5155682;27;19911;-43
2023/09/18 02:43:51;;;;;;;;;;;17.80;99.90;;;;;;5135693;27;19933;-43
2023/09/18 02:46:16;;;;;;;;;;;17.80;99.90;;;;;;5135206;27;20383;-45
2023/09/18 02:48:42;;;;;;;;;;;17.80;99.90;;;;;;5135163;27;19913;-43
2023/09/18 02:51:08;;;;;;;;;;;17.80;99.90;;;;;;5134674;27;20018;-43
2023/09/18 02:53:33;;;;;;;;;;;17.80;99.90;;;;;;5142814;27;19908;-43
2023/09/18 02:55:59;;;;;;;;;;;17.80;99.90;;;;;;5155852;27;19918;-43
2023/09/18 02:58:26;;;;;;;;;;;17.80;99.90;;;;;;5155667;27;19946;-41
2023/09/18 03:00:52;;;;;;;;;;;17.80;99.90;;;;;;5155734;27;20405;-44
2023/09/18 03:03:18;;;;;;;;;;;17.80;99.90;;;;;;5154862;27;19907;-43
2023/09/18 03:05:44;;;;;;;;;;;17.80;99.90;;;;;;5155131;27;20009;-42
2023/09/18 03:08:10;;;;;;;;;;;17.80;99.90;;;;;;5154625;27;19918;-43
2023/09/18 03:10:37;;;;;;;;;;;17.80;99.90;;;;;;5155602;27;19972;-45
2023/09/18 03:13:03;;;;;;;;;;;17.80;99.90;;;;;;5155327;27;19938;-42
2023/09/18 03:15:29;;;;;;;;;;;17.90;99.90;;;;;;5155390;27;20269;-41
2023/09/18 03:17:55;;;;;;;;;;;17.90;99.90;;;;;;5139080;27;19915;-42
2023/09/18 03:20:22;;;;;;;;;;;17.90;99.90;;;;;;5134549;27;20395;-42
2023/09/18 03:22:47;;;;;;;;;;;17.80;99.90;;;;;;5134534;27;19918;-43
2023/09/18 03:25:13;;;;;;;;;;;17.80;99.90;;;;;;5134393;27;19907;-41
2023/09/18 03:27:38;;;;;;;;;;;17.80;99.90;;;;;;5134331;27;19911;-44
2023/09/18 03:30:04;;;;;;;;;;;17.80;99.90;;;;;;5134377;27;19965;-46
2023/09/18 03:32:30;;;;;;;;;;;17.80;99.90;;;;;;5133993;27;19926;-43
2023/09/18 03:34:55;;;;;;;;;;;17.80;99.90;;;;;;5134289;27;19908;-43
2023/09/18 03:37:21;;;;;;;;;;;17.80;99.90;;;;;;5133960;27;19911;-41
2023/09/18 03:39:46;;;;;;;;;;;17.80;99.90;;;;;;5134447;27;19959;-44
2023/09/18 03:42:12;;;;;;;;;;;17.90;99.90;;;;;;5133928;27;19915;-41
2023/09/18 03:44:37;;;;;;;;;;;17.90;99.90;;;;;;5151778;27;20428;-43
2023/09/18 03:47:03;;;;;;;;;;;17.90;99.90;;;;;;5154852;27;19914;-43
2023/09/18 03:49:29;;;;;;;;;;;17.90;99.90;;;;;;5154957;27;19959;-44
2023/09/18 03:51:54;;;;;;;;;;;17.90;99.90;;;;;;5140595;27;20297;-43
2023/09/18 03:54:20;;;;;;;;;;;17.90;99.90;;;;;;5134187;27;19912;-44
2023/09/18 03:56:46;;;;;;;;;;;17.90;99.90;;;;;;5134100;27;19915;-44
2023/09/18 03:59:12;;;;;;;;;;;17.90;99.90;;;;;;5133995;27;19911;-43
2023/09/18 04:01:37;;;;;;;;;;;17.90;99.90;;;;;;5134138;27;19934;-44
2023/09/18 04:04:03;;;;;;;;;;;18.00;99.90;;;;;;5154148;27;20289;-43
2023/09/18 04:06:35;;;;;;;;;;;17.90;99.90;;;;;;5154467;27;19913;-42
2023/09/18 04:09:01;;;;;;;;;;;17.90;99.90;;;;;;5154602;27;19978;-43
2023/09/18 04:11:26;;;;;;;;;;;17.90;99.90;;;;;;5153993;27;20022;-43
2023/09/18 04:13:52;;;;;;;;;;;17.90;99.90;;;;;;5139153;27;20282;-43
2023/09/18 04:16:17;;;;;;;;;;;17.90;99.90;;;;;;5133760;28;19908;-44
2023/09/18 04:18:43;;;;;;;;;;;17.90;99.90;;;;;;5133808;28;19908;-44
2023/09/18 04:21:10;;;;;;;;;;;17.90;99.90;;;;;;5133586;28;20370;-45
2023/09/18 04:23:36;;;;;;;;;;;17.90;99.90;;;;;;5133465;28;19915;-43
2023/09/18 04:26:02;;;;;;;;;;;17.90;99.90;;;;;;5133720;28;19964;-44
2023/09/18 04:28:27;;;;;;;;;;;17.90;99.90;;;;;;5133697;28;19976;-43
2023/09/18 04:30:53;;;;;;;;;;;17.90;99.90;;;;;;5133669;28;19908;-43
2023/09/18 04:33:18;;;;;;;;;;;17.90;99.90;;;;;;5139642;27;20450;-45
2023/09/18 04:35:44;;;;;;;;;;;17.90;99.90;;;;;;5154251;27;20043;-45
2023/09/18 04:38:15;;;;;;;;;;;17.90;99.90;;;;;;5154207;27;19911;-42
2023/09/18 04:40:40;;;;;;;;;;;17.90;99.90;;;;;;5154399;27;19960;-43
2023/09/18 04:43:06;;;;;;;;;;;17.90;99.90;;;;;;5153666;27;19911;-42
2023/09/18 04:45:31;;;;;;;;;;;18.00;99.90;;;;;;5154273;27;19908;-42
2023/09/18 04:47:57;;;;;;;;;;;18.00;99.90;;;;;;5154074;27;20338;-43
2023/09/18 04:50:22;;;;;;;;;;;18.00;99.90;;;;;;5154100;27;19998;-44
2023/09/18 04:52:50;;;;;;;;;;;18.00;99.90;;;;;;5138912;27;20378;-42
2023/09/18 04:55:16;;;;;;;;;;;18.00;99.90;;;;;;5133298;28;19914;-43
2023/09/18 04:57:41;;;;;;;;;;;18.00;99.90;;;;;;5133400;28;19911;-41
2023/09/18 05:00:12;;;;;;;;;;;18.00;99.90;;;;;;5133383;28;19907;-44
2023/09/18 05:02:38;;;;;;;;;;;18.00;99.90;;;;;;5133240;28;19908;-44
2023/09/18 05:05:04;;;;;;;;;;;18.00;99.90;;;;;;5133259;28;19919;-42
2023/09/18 05:07:30;;;;;;;;;;;18.00;99.90;;;;;;5133349;28;19907;-43
2023/09/18 05:09:55;;;;;;;;;;;18.10;99.90;;;;;;5133338;28;19908;-41
2023/09/18 05:12:23;;;;;;;;;;;18.10;99.90;;;;;;5140038;27;19938;-43
2023/09/18 05:14:48;;;;;;;;;;;18.10;99.90;;;;;;5154365;27;20357;-44
2023/09/18 05:17:15;;;;;;;;;;;18.10;99.90;;;;;;5141978;27;19908;-43
2023/09/18 05:19:41;;;;;;;;;;;18.10;99.90;;;;;;5137000;27;20317;-43
2023/09/18 05:22:07;;;;;;;;;;;18.10;99.90;;;;;;5136883;27;19914;-46
2023/09/18 05:24:33;;;;;;;;;;;18.20;99.90;;;;;;5136836;27;19908;-43
2023/09/18 05:26:59;;;;;;;;;;;18.20;99.90;;;;;;5145819;27;19918;-46
2023/09/18 05:29:24;;;;;;;;;;;18.20;99.90;;;;;;5126073;27;19918;-42
2023/09/18 05:31:49;;;;;;;;;;;18.20;99.90;;;;;;5124592;27;20327;-44
2023/09/18 05:34:15;;;;;;;;;;;18.30;99.90;;;;;;5116142;28;19908;-42
2023/09/18 05:36:41;;;;;;;;;;;18.30;99.90;;;;;;5116091;28;20315;-45
2023/09/18 05:39:12;;;;;;;;;;;18.40;99.90;;;;;;5136546;27;19911;-41
2023/09/18 05:41:41;;;;;;;;;;;18.40;99.90;;;;;;5136878;27;19919;-45
2023/09/18 05:44:07;;;;;;;;;;;18.40;99.90;;;;;;5136346;27;20276;-42
2023/09/18 05:46:36;;;;;;;;;;;18.50;99.90;;;;;;5135798;27;19912;-42
2023/09/18 05:49:01;;;;;;;;;;;18.50;99.90;;;;;;5135805;27;19911;-43
2023/09/18 05:51:27;;;;;;;;;;;18.60;99.90;;;;;;5144004;27;20266;-41
2023/09/18 05:53:52;;;;;;;;;;;18.60;99.90;;;;;;5153574;27;19907;-42
2023/09/18 05:56:18;;;;;;;;;;;18.60;99.90;;;;;;5123333;27;19998;-43
2023/09/18 05:58:44;;;;;;;;;;;18.60;99.90;;;;;;5135215;27;20190;-43
2023/09/18 06:01:09;;;;;;;;;;;18.70;99.90;;;;;;5140091;27;20384;-42
2023/09/18 06:03:35;;;;;;;;;;;18.70;99.90;;;;;;5134739;27;20423;-43
2023/09/18 06:06:09;;;;;;;;;;;18.70;99.90;;;;;;5135326;27;19912;-44
2023/09/18 06:08:35;;;;;;;;;;;18.80;99.90;;;;;;5137265;27;19915;-41
2023/09/18 06:11:00;;;;;;;;;;;18.80;99.90;;;;;;5136410;27;19911;-43
2023/09/18 06:13:27;;;;;;;;;;;18.80;99.90;;;;;;5123489;27;20272;-44
2023/09/18 06:15:54;;;;;;;;;;;18.80;99.90;;;;;;5123024;27;20360;-45
2023/09/18 06:18:23;;;;;;;;;;;18.90;99.90;;;;;;5142550;27;19994;-43
2023/09/18 06:20:49;;;;;;;;;;;18.90;99.90;;;;;;5148761;27;20002;-46
2023/09/18 06:23:14;;;;;;;;;;;18.90;99.90;;;;;;5129789;27;19918;-42
2023/09/18 06:25:40;;;;;;;;;;;18.90;99.90;;;;;;5139780;27;20009;-41
2023/09/18 06:28:05;;;;;;;;;;;18.90;99.90;;;;;;5148238;27;19911;-42
2023/09/18 06:30:33;;;;;;;;;;;19.00;99.90;;;;;;5140576;27;20450;-43
2023/09/18 06:32:58;;;;;;;;;;;19.00;99.90;;;;;;5143925;27;19919;-44
2023/09/18 06:35:24;;;;;;;;;;;19.00;99.90;;;;;;5147333;27;19911;-43
2023/09/18 06:37:49;;;;;;;;;;;19.00;99.90;;;;;;5135315;27;19919;-44
2023/09/18 06:40:15;;;;;;;;;;;19.00;99.90;;;;;;5140701;27;20406;-42
2023/09/18 06:42:40;;;;;;;;;;;19.00;99.90;;;;;;5148566;27;19911;-46
2023/09/18 06:45:09;;;;;;;;;;;18.90;99.90;;;;;;5138700;27;20265;-45
2023/09/18 06:47:35;;;;;;;;;;;18.90;99.90;;;;;;5147805;27;20573;-43
2023/09/18 06:50:00;;;;;;;;;;;18.90;99.90;;;;;;5138382;27;20032;-47
2023/09/18 06:52:27;;;;;;;;;;;18.90;99.90;;;;;;5145874;27;20248;-43
2023/09/18 06:54:53;;;;;;;;;;;18.90;99.90;;;;;;5137182;27;19915;-44
2023/09/18 06:57:20;;;;;;;;;;;18.90;99.90;;;;;;5144760;27;19918;-41
2023/09/18 06:59:46;;;;;;;;;;;18.90;99.90;;;;;;5133292;27;19915;-41
2023/09/18 07:02:14;;;;;;;;;;;18.90;99.90;;;;;;5139564;27;19911;-43
2023/09/18 07:04:44;;;;;;;;;;;18.90;99.90;;;;;;5146286;27;20400;-43
2023/09/18 07:07:13;;;;;;;;;;;18.90;99.90;;;;;;5126012;27;20538;-43
2023/09/18 07:09:40;;;;;;;;;;;18.90;99.90;;;;;;5144039;27;20386;-42
2023/09/18 07:12:05;;;;;;;;;;;19.00;99.90;;;;;;5154895;27;19919;-43
2023/09/18 07:14:31;;;;;;;;;;;19.10;99.90;;;;;;5150209;27;19907;-40
2023/09/18 07:16:56;;;;;;;;;;;19.10;99.90;;;;;;5119794;27;19908;-40
2023/09/18 07:19:22;;;;;;;;;;;18.90;99.90;;;;;;5130616;27;19919;-42
2023/09/18 07:21:47;;;;;;;;;;;18.90;99.90;;;;;;5130858;27;19912;-44
2023/09/18 07:24:16;;;;;;;;;;;18.90;99.90;;;;;;5123803;27;19965;-43
2023/09/18 07:26:45;;;;;;;;;;;18.70;99.90;;;;;;5127463;27;19915;-42
2023/09/18 07:29:11;;;;;;;;;;;18.80;99.90;;;;;;5135689;27;19916;-41
2023/09/18 07:31:36;;;;;;;;;;;18.70;99.90;;;;;;5140682;27;20400;-41
2023/09/18 07:34:04;;;;;;;;;;;18.70;99.90;;;;;;5154929;27;19962;-43
2023/09/18 07:36:29;;;;;;;;;;;18.70;99.90;;;;;;5155009;27;19951;-43
2023/09/18 07:38:56;;;;;;;;;;;18.80;99.90;;;;;;5154498;27;19907;-43
2023/09/18 07:41:22;;;;;;;;;;;18.80;99.90;;;;;;5154818;27;20607;-43
2023/09/18 07:43:48;;;;;;;;;;;18.80;99.90;;;;;;5136023;27;20372;-44
2023/09/18 07:46:13;;;;;;;;;;;18.90;99.90;;;;;;5136963;27;19908;-42
2023/09/18 07:48:39;;;;;;;;;;;18.90;99.90;;;;;;5136315;27;19919;-44
2023/09/18 07:51:05;;;;;;;;;;;19.00;99.90;;;;;;5117068;27;19919;-45
2023/09/18 07:53:32;;;;;;;;;;;19.00;99.90;;;;;;5148667;27;19911;-42
2023/09/18 07:55:58;;;;;;;;;;;19.10;99.90;;;;;;5154701;27;19907;-44
2023/09/18 07:58:27;;;;;;;;;;;19.10;99.90;;;;;;5132759;27;20430;-42
2023/09/18 08:00:54;;;;;;;;;;;19.20;99.90;;;;;;5134015;27;19915;-42
2023/09/18 08:03:20;;;;;;;;;;;19.20;99.90;;;;;;5133850;27;19908;-43
2023/09/18 08:05:47;;;;;;;;;;;19.20;99.90;;;;;;5132900;27;20408;-43
2023/09/18 08:08:13;;;;;;;;;;;19.20;99.90;;;;;;5122845;27;19911;-47
2023/09/18 08:10:38;;;;;;;;;;;19.20;99.90;;;;;;5131046;27;20419;-46
2023/09/18 08:13:04;;;;;;;;;;;19.20;99.90;;;;;;5132617;27;19920;-44
2023/09/18 08:15:29;;;;;;;;;;;19.20;99.90;;;;;;5119544;27;19918;-43
2023/09/18 08:17:55;;;;;;;;;;;19.30;99.90;;;;;;5130283;27;19932;-44
2023/09/18 08:20:20;;;;;;;;;;;19.30;99.90;;;;;;5147087;27;20277;-42
2023/09/18 08:22:48;;;;;;;;;;;19.30;99.90;;;;;;5142159;27;20045;-43
2023/09/18 08:25:13;;;;;;;;;;;19.30;99.90;;;;;;5136584;27;20005;-42
2023/09/18 08:27:43;;;;;;;;;;;19.30;99.90;;;;;;5137475;27;19973;-44
2023/09/18 08:30:10;;;;;;;;;;;19.30;99.90;;;;;;5120122;27;19965;-45
2023/09/18 08:32:39;;;;;;;;;;;19.20;99.90;;;;;;5139120;27;19919;-43
2023/09/18 08:35:05;;;;;;;;;;;19.20;99.90;;;;;;5149619;27;20006;-42
2023/09/18 08:37:31;;;;;;;;;;;19.20;99.90;;;;;;5131031;27;19912;-44
2023/09/18 08:39:56;;;;;;;;;;;19.20;99.90;;;;;;5134363;27;19919;-42
2023/09/18 08:42:22;;;;;;;;;;;19.20;99.90;;;;;;5137940;27;19922;-44
2023/09/18 08:44:50;;;;;;;;;;;19.20;99.90;;;;;;5145367;27;20330;-44
2023/09/18 08:47:16;;;;;;;;;;;19.20;99.90;;;;;;5149470;27;19907;-43
2023/09/18 08:49:42;;;;;;;;;;;19.30;99.90;;;;;;5152058;27;19907;-43
2023/09/18 08:52:08;;;;;;;;;;;19.30;99.90;;;;;;5137430;27;20294;-44
2023/09/18 08:54:34;;;;;;;;;;;19.30;99.90;;;;;;5137213;27;20370;-46
2023/09/18 08:57:00;;;;;;;;;;;19.30;99.90;;;;;;5134462;27;19912;-43
2023/09/18 08:59:27;;;;;;;;;;;19.30;99.90;;;;;;5123358;27;19911;-43
2023/09/18 09:01:53;;;;;;;;;;;19.30;99.90;;;;;;5123009;27;20260;-42
2023/09/18 09:04:18;;;;;;;;;;;19.40;99.90;;;;;;5131716;27;20354;-42
2023/09/18 09:06:44;;;;;;;;;;;19.40;99.90;;;;;;5147788;27;20061;-45
2023/09/18 09:09:12;;;;;;;;;;;19.50;99.90;;;;;;5134833;27;19911;-43
2023/09/18 09:11:38;;;;;;;;;;;19.50;99.90;;;;;;5146470;27;19941;-44
2023/09/18 09:14:28;;;;;;;;;;;19.50;99.90;;;;;;5152212;27;20393;-43
2023/09/18 09:16:54;;;;;;;;;;;19.50;99.90;;;;;;5148378;27;19918;-42
2023/09/18 09:19:42;;;;;;;;;;;19.50;99.90;;;;;;5147463;27;19916;-43
2023/09/18 09:22:09;;;;;;;;;;;19.50;99.90;;;;;;5137383;27;19918;-43
2023/09/18 09:24:41;;;;;;;;;;;19.50;99.90;;;;;;5135827;27;20014;-44
2023/09/18 09:27:08;;;;;;;;;;;19.50;99.90;;;;;;5136970;27;19916;-43
2023/09/18 09:29:34;;;;;;;;;;;19.60;99.90;;;;;;5125219;27;20369;-43
2023/09/18 09:32:25;;;;;;;;;;;19.60;99.90;;;;;;5122870;27;19919;-44
2023/09/18 09:34:56;;;;;;;;;;;19.60;99.90;;;;;;5111762;28;19972;-43
2023/09/18 09:37:29;;;;;;;;;;;19.70;99.90;;;;;;5115745;28;19916;-43
2023/09/18 09:39:54;;;;;;;;;;;19.70;99.90;;;;;;5116072;28;20015;-43
2023/09/18 09:42:28;;;;;;;;;;;19.70;99.90;;;;;;5116022;28;20388;-42
2023/09/18 09:45:11;;;;;;;;;;;19.80;99.90;;;;;;5122993;27;20396;-43
2023/09/18 09:47:37;;;;;;;;;;;19.90;99.90;;;;;;5128227;27;19915;-43
2023/09/18 09:50:06;;;;;;;;;;;20.00;99.90;;;;;;5115498;27;19918;-42
2023/09/18 09:52:35;;;;;;;;;;;20.20;99.90;;;;;;5110117;28;19920;-41
2023/09/18 09:55:01;;;;;;;;;;;20.30;99.90;;;;;;5116215;28;19922;-43
2023/09/18 09:57:27;;;;;;;;;;;20.30;99.90;;;;;;5116039;28;19959;-43
2023/09/18 10:00:06;;;;;;;;;;;20.30;99.90;;;;;;5116166;28;20004;-43
2023/09/18 10:02:33;;;;;;;;;;;20.30;99.90;;;;;;5115840;28;19916;-41
2023/09/18 10:04:59;;;;;;;;;;;20.30;99.90;;;;;;5125234;27;20411;-43
2023/09/18 10:07:25;;;;;;;;;;;20.40;99.90;;;;;;5096172;28;19912;-44
2023/09/18 10:09:51;;;;;;;;;;;20.40;99.90;;;;;;5096154;28;19916;-42
2023/09/18 10:12:20;;;;;;;;;;;20.40;99.90;;;;;;5094715;28;19916;-46
2023/09/18 10:14:48;;;;;;;;;;;20.30;99.90;;;;;;5116063;27;19912;-44
2023/09/18 10:17:18;;;;;;;;;;;20.30;99.90;;;;;;5104078;28;19914;-44
2023/09/18 10:19:57;;;;;;;;;;;20.30;99.90;;;;;;5096309;28;20026;-43
2023/09/18 10:22:26;;;;;;;;;;;20.40;99.90;;;;;;5123564;27;20348;-43
2023/09/18 10:24:54;;;;;;;;;;;20.40;99.90;;;;;;5114943;28;19963;-43
2023/09/18 10:27:22;;;;;;;;;;;20.50;99.90;;;;;;5105468;28;19908;-43
2023/09/18 10:29:51;;;;;;;;;;;20.50;99.90;;;;;;5110390;28;19908;-42
2023/09/18 10:32:17;;;;;;;;;;;20.50;99.90;;;;;;5130892;27;20389;-42
2023/09/18 10:34:43;;;;;;;;;;;20.50;99.90;;;;;;5151633;27;19958;-43
2023/09/18 10:37:09;;;;;;;;;;;20.50;99.90;;;;;;5135811;27;20278;-42
2023/09/18 10:39:36;;;;;;;;;;;20.60;99.90;;;;;;5120595;27;19960;-43
2023/09/18 10:42:03;;;;;;;;;;;20.50;99.90;;;;;;5135867;27;19911;-42
2023/09/18 10:44:31;;;;;;;;;;;20.60;99.90;;;;;;5156350;27;19911;-44
2023/09/18 10:46:57;;;;;;;;;;;20.70;99.90;;;;;;5156638;27;19907;-43
2023/09/18 10:49:22;;;;;;;;;;;20.80;99.90;;;;;;5156562;27;20047;-42
2023/09/18 10:51:48;;;;;;;;;;;20.80;99.90;;;;;;5154104;27;19923;-42
2023/09/18 10:54:20;;;;;;;;;;;21.00;99.90;;;;;;5156360;27;19907;-43
2023/09/18 10:56:45;;;;;;;;;;;21.00;99.90;;;;;;5128655;27;19919;-42
2023/09/18 10:59:11;;;;;;;;;;;21.20;99.90;;;;;;5115045;28;19999;-43
2023/09/18 11:01:37;;;;;;;;;;;21.20;99.90;;;;;;5137757;27;19912;-41
2023/09/18 11:04:06;;;;;;;;;;;21.30;99.90;;;;;;5134365;27;19992;-42
2023/09/18 11:06:51;;;;;;;;;;;21.40;99.90;;;;;;5135651;27;19958;-43
2023/09/18 11:09:19;;;;;;;;;;;21.30;99.90;;;;;;5114086;28;19964;-43
2023/09/18 11:11:44;;;;;;;;;;;21.30;99.90;;;;;;5133311;27;19924;-43
2023/09/18 11:14:10;;;;;;;;;;;21.40;99.90;;;;;;5133669;27;19911;-43
2023/09/18 11:16:38;;;;;;;;;;;21.50;99.90;;;;;;5134538;27;19914;-44
2023/09/18 11:19:05;;;;;;;;;;;21.50;99.90;;;;;;5113007;28;20282;-44
2023/09/18 11:21:31;;;;;;;;;;;21.40;99.90;;;;;;5125513;27;19916;-44
2023/09/18 11:24:00;;;;;;;;;;;21.50;99.90;;;;;;5134694;27;19908;-43
2023/09/18 11:26:33;;;;;;;;;;;21.50;99.90;;;;;;5134623;27;20411;-44
2023/09/18 11:29:05;;;;;;;;;;;21.60;99.90;;;;;;5135034;27;19918;-43
2023/09/18 11:31:56;;;;;;;;;;;21.40;99.90;;;;;;5134507;27;19971;-42
2023/09/18 11:34:28;;;;;;;;;;;21.40;99.90;;;;;;5134872;27;19911;-43
2023/09/18 11:36:54;;;;;;;;;;;21.50;99.90;;;;;;5123651;27;20270;-43
2023/09/18 11:39:35;;;;;;;;;;;21.80;99.90;;;;;;5118000;27;20380;-43
2023/09/18 11:42:09;;;;;;;;;;;21.90;99.90;;;;;;5142123;27;19955;-44
2023/09/18 11:44:36;;;;;;;;;;;22.00;99.90;;;;;;5131019;27;20377;-45
2023/09/18 11:47:04;;;;;;;;;;;22.10;99.90;;;;;;5113880;28;19912;-44
2023/09/18 11:49:31;;;;;;;;;;;22.20;99.90;;;;;;5114225;27;19919;-43
2023/09/18 11:52:00;;;;;;;;;;;22.20;99.90;;;;;;5126242;27;19920;-42
2023/09/18 11:54:27;;;;;;;;;;;22.20;99.90;;;;;;5113018;28;19908;-42
2023/09/18 11:56:52;;;;;;;;;;;22.40;99.90;;;;;;5122867;27;19915;-43
2023/09/18 11:59:19;;;;;;;;;;;22.40;99.90;;;;;;5133731;27;20343;-43
2023/09/18 12:01:52;;;;;;;;;;;22.40;99.90;;;;;;5129196;27;20369;-42
2023/09/18 12:04:27;;;;;;;;;;;22.30;99.90;;;;;;5133815;27;19994;-44
2023/09/18 12:06:52;;;;;;;;;;;22.20;99.90;;;;;;5133724;27;19960;-44
2023/09/18 12:09:19;;;;;;;;;;;22.00;99.90;;;;;;5139390;27;19915;-44
2023/09/18 12:11:45;;;;;;;;;;;22.00;99.90;;;;;;5154398;27;20293;-43
2023/09/18 12:14:12;;;;;;;;;;;22.00;99.90;;;;;;5144409;27;19911;-44
2023/09/18 12:16:41;;;;;;;;;;;22.10;99.90;;;;;;5133932;27;19907;-43
2023/09/18 12:19:06;;;;;;;;;;;22.10;99.90;;;;;;5137254;27;19911;-44
2023/09/18 12:21:32;;;;;;;;;;;22.10;99.90;;;;;;5153857;27;20051;-43
2023/09/18 12:23:59;;;;;;;;;;;22.20;99.90;;;;;;5139350;27;19915;-45
2023/09/18 12:26:25;;;;;;;;;;;22.30;99.90;;;;;;5123297;27;19911;-43
2023/09/18 12:28:51;;;;;;;;;;;22.30;99.90;;;;;;5134159;27;20251;-44
2023/09/18 12:31:16;;;;;;;;;;;22.20;99.90;;;;;;5133894;27;20419;-44
2023/09/18 12:33:47;;;;;;;;;;;22.10;99.90;;;;;;5136907;27;20073;-43
2023/09/18 12:36:14;;;;;;;;;;;22.00;99.90;;;;;;5131897;27;20508;-43
2023/09/18 12:38:40;;;;;;;;;;;21.90;99.90;;;;;;5131890;27;19915;-43
2023/09/18 12:41:06;;;;;;;;;;;21.90;99.90;;;;;;5133008;27;19917;-44
2023/09/18 12:43:39;;;;;;;;;;;21.90;99.90;;;;;;5158785;27;19911;-42
2023/09/18 12:46:05;;;;;;;;;;;21.90;99.90;;;;;;5156891;27;19951;-42
2023/09/18 12:48:31;;;;;;;;;;;21.80;99.90;;;;;;5159080;27;19911;-45
2023/09/18 12:51:03;;;;;;;;;;;21.80;99.90;;;;;;5140124;27;19911;-43
2023/09/18 12:53:29;;;;;;;;;;;21.80;99.90;;;;;;5140285;27;20451;-44
2023/09/18 12:56:04;;;;;;;;;;;21.70;99.90;;;;;;5138082;27;19915;-42
2023/09/18 12:58:29;;;;;;;;;;;21.80;99.90;;;;;;5132460;27;19999;-45
2023/09/18 13:00:55;;;;;;;;;;;22.20;99.90;;;;;;5136743;27;20549;-46
2023/09/18 13:03:21;;;;;;;;;;;22.50;99.90;;;;;;5130268;27;20474;-44
2023/09/18 13:05:48;;;;;;;;;;;22.90;99.90;;;;;;5137256;27;19907;-44
2023/09/18 13:08:14;;;;;;;;;;;23.20;99.90;;;;;;5138723;27;20043;-42
2023/09/18 13:10:43;;;;;;;;;;;23.40;99.90;;;;;;5146852;27;19941;-44
2023/09/18 13:13:16;;;;;;;;;;;23.50;99.90;;;;;;5136017;27;19922;-43
2023/09/18 13:15:42;;;;;;;;;;;23.40;99.90;;;;;;5137127;27;20058;-46
2023/09/18 13:18:11;;;;;;;;;;;23.30;99.90;;;;;;5134954;27;20413;-44
2023/09/18 13:20:36;;;;;;;;;;;23.30;99.90;;;;;;5136871;27;19908;-43
2023/09/18 13:23:03;;;;;;;;;;;23.30;99.90;;;;;;5135645;27;19972;-43
2023/09/18 13:25:28;;;;;;;;;;;23.30;99.90;;;;;;5125143;27;20048;-43
2023/09/18 13:27:54;;;;;;;;;;;23.30;99.90;;;;;;5135917;27;20002;-43
2023/09/18 13:30:21;;;;;;;;;;;23.70;99.90;;;;;;5135286;27;19919;-43
2023/09/18 13:32:50;;;;;;;;;;;23.70;99.90;;;;;;5136094;27;20338;-43
2023/09/18 13:35:17;;;;;;;;;;;23.70;99.90;;;;;;5140563;27;20073;-44
2023/09/18 13:37:43;;;;;;;;;;;23.40;99.90;;;;;;5135845;27;19913;-43
2023/09/18 13:40:09;;;;;;;;;;;23.30;99.90;;;;;;5135902;27;20119;-43
2023/09/18 13:42:35;;;;;;;;;;;23.50;99.90;;;;;;5132334;27;19911;-43
2023/09/18 13:45:01;;;;;;;;;;;23.70;99.90;;;;;;5133711;27;19919;-44
2023/09/18 13:47:27;;;;;;;;;;;23.90;99.90;;;;;;5127588;27;19937;-43
2023/09/18 13:49:56;;;;;;;;;;;24.30;99.90;;;;;;5127978;27;19965;-43
2023/09/18 13:52:25;;;;;;;;;;;24.50;99.90;;;;;;5135278;27;19923;-43
2023/09/18 13:54:52;;;;;;;;;;;24.90;99.90;;;;;;5143367;27;20421;-44
2023/09/18 13:57:21;;;;;;;;;;;25.00;99.90;;;;;;5146124;27;20359;-45
2023/09/18 13:59:48;;;;;;;;;;;24.70;99.90;;;;;;5126489;27;20334;-44
2023/09/18 14:02:14;;;;;;;;;;;24.30;99.90;;;;;;5132674;27;20018;-43
2023/09/18 14:04:39;;;;;;;;;;;23.90;99.90;;;;;;5136806;27;20410;-43
2023/09/18 14:07:08;;;;;;;;;;;23.60;99.90;;;;;;5136046;27;19998;-43
2023/09/18 14:09:34;;;;;;;;;;;23.50;99.90;;;;;;5134158;27;19912;-44
2023/09/18 14:11:59;;;;;;;;;;;23.50;99.90;;;;;;5136068;27;19921;-44
2023/09/18 14:14:25;;;;;;;;;;;23.50;99.90;;;;;;5133094;27;19927;-43